createdAt,value
2019-05-05T00:01:25.403Z,99.90
2019-05-05T00:04:14.898Z,99.90
2019-05-05T00:06:45.746Z,99.90
2019-05-05T00:09:14.697Z,99.90
2019-05-05T00:11:58.174Z,99.90
2019-05-05T00:14:44.260Z,99.90
2019-05-05T00:17:20.300Z,99.90
2019-05-05T00:19:49.664Z,99.90
2019-05-05T00:22:18.522Z,99.90
2019-05-05T00:24:46.956Z,99.90
2019-05-05T00:27:16.340Z,99.90
2019-05-05T00:29:45.753Z,99.90
2019-05-05T00:32:15.290Z,99.90
2019-05-05T00:34:44.525Z,99.90
2019-05-05T00:37:14.968Z,99.90
2019-05-05T00:39:45.161Z,99.90
2019-05-05T00:42:15.550Z,99.90
2019-05-05T00:44:44.790Z,99.90
2019-05-05T00:47:15.450Z,99.90
2019-05-05T00:49:49.099Z,99.90
2019-05-05T00:52:16.536Z,99.90
2019-05-05T00:54:46.315Z,99.90
2019-05-05T00:57:15.049Z,99.90
2019-05-05T00:59:45.203Z,99.90
2019-05-05T01:02:21.336Z,99.90
2019-05-05T01:04:55.081Z,99.90
2019-05-05T01:07:24.832Z,99.90
2019-05-05T01:09:54.261Z,99.90
2019-05-05T01:12:24.446Z,99.90
2019-05-05T01:14:55.205Z,99.90
2019-05-05T01:17:25.307Z,99.90
2019-05-05T01:20:03.360Z,99.90
2019-05-05T01:22:25.140Z,99.90
2019-05-05T01:24:55.439Z,99.90
2019-05-05T01:27:25.383Z,99.90
2019-05-05T01:29:55.200Z,99.90
2019-05-05T01:32:29.509Z,99.90
2019-05-05T01:34:58.209Z,99.90
2019-05-05T01:37:34.821Z,99.90
2019-05-05T01:40:24.768Z,99.90
2019-05-05T01:42:54.781Z,99.90
2019-05-05T01:45:24.200Z,99.90
2019-05-05T01:47:54.569Z,99.90
2019-05-05T01:50:24.809Z,99.90
2019-05-05T01:52:55.429Z,99.90
2019-05-05T01:55:25.260Z,99.90
2019-05-05T01:57:54.483Z,99.90
2019-05-05T02:00:25.241Z,99.90
2019-05-05T02:02:55.369Z,99.90
2019-05-05T02:05:25.162Z,99.90
2019-05-05T02:07:55.296Z,99.90
2019-05-05T02:10:25.419Z,99.90
2019-05-05T02:12:55.207Z,99.90
2019-05-05T02:15:25.023Z,99.90
2019-05-05T02:17:55.650Z,99.90
2019-05-05T02:20:45.747Z,99.90
2019-05-05T02:23:15.907Z,99.90
2019-05-05T02:25:44.830Z,99.90
2019-05-05T02:28:14.989Z,99.90
2019-05-05T02:33:49.231Z,99.90
2019-05-05T02:36:17.733Z,99.90
2019-05-05T02:38:46.553Z,99.90
2019-05-05T02:41:17.307Z,99.90
2019-05-05T02:43:49.360Z,99.90
2019-05-05T02:46:38.059Z,99.90
2019-05-05T02:49:07.866Z,99.90
2019-05-05T02:51:37.341Z,99.90
2019-05-05T02:54:05.915Z,99.90
2019-05-05T02:56:43.601Z,99.90
2019-05-05T02:59:16.312Z,99.90
2019-05-05T03:01:46.760Z,99.90
2019-05-05T03:04:15.681Z,99.90
2019-05-05T03:06:48.448Z,99.90
2019-05-05T03:09:18.963Z,99.90
2019-05-05T03:11:49.739Z,99.90
2019-05-05T03:14:23.551Z,99.90
2019-05-05T03:16:54.186Z,99.90
2019-05-05T03:19:24.784Z,99.90
2019-05-05T03:21:54.551Z,99.90
2019-05-05T03:24:23.647Z,99.90
2019-05-05T03:26:53.723Z,99.90
2019-05-05T03:29:25.644Z,99.90
2019-05-05T03:31:56.359Z,99.90
2019-05-05T03:34:24.908Z,99.90
2019-05-05T03:36:53.800Z,99.90
2019-05-05T03:39:25.980Z,99.90
2019-05-05T03:41:59.395Z,99.90
2019-05-05T03:44:30.900Z,99.90
2019-05-05T03:46:59.511Z,99.90
2019-05-05T03:49:28.412Z,99.90
2019-05-05T03:51:57.724Z,99.90
2019-05-05T03:54:27.108Z,99.90
2019-05-05T03:57:08.010Z,99.90
2019-05-05T03:59:38.852Z,99.90
2019-05-05T04:02:15.559Z,99.90
2019-05-05T04:04:46.846Z,99.90
2019-05-05T04:07:15.945Z,99.90
2019-05-05T04:09:44.459Z,99.90
2019-05-05T04:12:14.266Z,99.90
2019-05-05T04:14:44.991Z,99.90
2019-05-05T04:17:33.525Z,99.90
2019-05-05T04:20:19.104Z,99.90
2019-05-05T04:22:48.738Z,99.90
2019-05-05T04:25:18.367Z,99.90
2019-05-05T04:27:46.795Z,99.90
2019-05-05T04:30:15.495Z,99.90
2019-05-05T04:32:44.257Z,99.90
2019-05-05T04:35:14.115Z,99.90
2019-05-05T04:37:43.776Z,99.90
2019-05-05T04:40:14.793Z,99.90
2019-05-05T04:42:44.065Z,99.90
2019-05-05T04:45:14.779Z,99.90
2019-05-05T04:47:57.415Z,99.90
2019-05-05T04:50:45.840Z,99.90
2019-05-05T04:53:15.909Z,99.90
2019-05-05T04:55:44.362Z,99.90
2019-05-05T04:58:13.682Z,99.90
2019-05-05T05:00:44.135Z,99.90
2019-05-05T05:03:31.142Z,98.80
2019-05-05T05:06:07.567Z,97.50
2019-05-05T05:08:36.908Z,96.40
2019-05-05T05:11:05.340Z,94.70
2019-05-05T05:13:34.734Z,93.80
2019-05-05T05:16:04.552Z,92.90
2019-05-05T05:18:34.365Z,92.20
2019-05-05T05:21:04.413Z,91.60
2019-05-05T05:23:34.107Z,90.20
2019-05-05T05:26:04.878Z,90.70
2019-05-05T05:28:34.196Z,88.80
2019-05-05T05:31:04.051Z,88.60
2019-05-05T05:33:34.406Z,89.20
2019-05-05T05:36:03.993Z,90.20
2019-05-05T05:38:34.644Z,88.80
2019-05-05T05:41:13.664Z,88.50
2019-05-05T05:43:54.137Z,89.40
2019-05-05T05:46:27.054Z,81.70
2019-05-05T05:49:06.255Z,82.00
2019-05-05T05:51:37.503Z,84.10
2019-05-05T05:54:06.011Z,84.50
2019-05-05T05:56:34.455Z,85.30
2019-05-05T05:59:03.658Z,83.60
2019-05-05T06:01:34.419Z,84.00
2019-05-05T06:04:04.160Z,84.20
2019-05-05T06:06:34.618Z,83.80
2019-05-05T06:09:04.299Z,81.00
2019-05-05T06:11:34.513Z,78.70
2019-05-05T06:14:04.004Z,78.40
2019-05-05T06:16:34.202Z,77.70
2019-05-05T06:19:03.623Z,75.00
2019-05-05T06:21:33.741Z,76.10
2019-05-05T06:24:04.452Z,71.70
2019-05-05T06:26:34.352Z,71.90
2019-05-05T06:29:04.330Z,70.40
2019-05-05T06:31:35.006Z,70.40
2019-05-05T06:34:03.803Z,70.50
2019-05-05T06:36:34.064Z,70.00
2019-05-05T06:39:04.667Z,65.60
2019-05-05T06:41:35.725Z,66.30
2019-05-05T06:44:05.858Z,63.70
2019-05-05T06:46:53.727Z,64.90
2019-05-05T06:49:23.798Z,64.60
2019-05-05T06:51:54.519Z,66.60
2019-05-05T06:54:24.125Z,66.30
2019-05-05T06:56:53.888Z,64.30
2019-05-05T06:59:24.344Z,62.80
2019-05-05T07:01:53.585Z,63.70
2019-05-05T07:04:24.392Z,66.00
2019-05-05T07:06:56.778Z,65.40
2019-05-05T07:09:24.455Z,63.30
2019-05-05T07:11:54.095Z,62.30
2019-05-05T07:14:23.641Z,62.30
2019-05-05T07:16:54.353Z,66.70
2019-05-05T07:19:23.918Z,67.90
2019-05-05T07:21:53.831Z,68.40
2019-05-05T07:24:23.877Z,63.90
2019-05-05T07:26:54.101Z,61.50
2019-05-05T07:29:23.956Z,61.80
2019-05-05T07:31:54.597Z,64.60
2019-05-05T07:34:24.274Z,68.40
2019-05-05T07:36:54.798Z,69.60
2019-05-05T07:39:23.944Z,68.30
2019-05-05T07:41:54.155Z,70.00
2019-05-05T07:44:29.423Z,67.50
2019-05-05T07:46:54.452Z,65.80
2019-05-05T07:49:24.343Z,66.30
2019-05-05T07:51:54.705Z,65.60
2019-05-05T07:54:23.647Z,67.00
2019-05-05T07:56:53.833Z,66.50
2019-05-05T07:59:23.797Z,65.60
2019-05-05T08:01:54.613Z,62.10
2019-05-05T08:04:24.259Z,62.60
2019-05-05T08:06:54.046Z,62.40
2019-05-05T08:09:24.849Z,59.50
2019-05-05T08:11:54.301Z,56.20
2019-05-05T08:14:24.693Z,54.10
2019-05-05T08:17:10.293Z,54.60
2019-05-05T08:19:40.363Z,57.30
2019-05-05T08:22:09.124Z,57.20
2019-05-05T08:24:55.700Z,55.50
2019-05-05T08:27:34.341Z,57.20
2019-05-05T08:30:05.306Z,58.30
2019-05-05T08:32:35.791Z,59.40
2019-05-05T08:35:08.252Z,61.70
2019-05-05T08:37:36.837Z,61.40
2019-05-05T08:40:09.539Z,60.10
2019-05-05T08:42:37.971Z,61.10
2019-05-05T08:45:07.363Z,57.90
2019-05-05T08:47:36.140Z,60.90
2019-05-05T08:50:06.711Z,62.60
2019-05-05T08:52:35.768Z,58.70
2019-05-05T08:55:05.452Z,59.50
2019-05-05T08:57:35.867Z,58.00
2019-05-05T09:00:07.098Z,56.70
2019-05-05T09:02:36.773Z,54.60
2019-05-05T09:05:06.372Z,53.90
2019-05-05T09:07:34.792Z,52.60
2019-05-05T09:10:05.571Z,54.30
2019-05-05T09:12:34.016Z,53.70
2019-05-05T09:15:04.425Z,53.00
2019-05-05T09:17:33.737Z,51.50
2019-05-05T09:20:04.359Z,50.40
2019-05-05T09:22:32.382Z,46.40
2019-05-05T09:25:08.533Z,46.90
2019-05-05T09:27:41.555Z,46.10
2019-05-05T09:30:14.244Z,47.50
2019-05-05T09:32:43.924Z,47.70
2019-05-05T09:35:13.911Z,47.90
2019-05-05T09:37:44.321Z,47.60
2019-05-05T09:40:15.789Z,42.70
2019-05-05T09:42:44.575Z,43.30
2019-05-05T09:45:13.983Z,43.70
2019-05-05T09:47:44.855Z,45.60
2019-05-05T09:50:14.327Z,47.00
2019-05-05T09:52:44.401Z,48.30
2019-05-05T09:55:13.832Z,49.20
2019-05-05T09:57:43.787Z,50.80
2019-05-05T10:00:14.129Z,50.10
2019-05-05T10:02:44.171Z,48.60
2019-05-05T10:05:14.482Z,50.50
2019-05-05T10:07:44.076Z,49.70
2019-05-05T10:10:14.483Z,50.30
2019-05-05T10:12:44.556Z,47.90
2019-05-05T10:15:14.061Z,48.40
2019-05-05T10:17:43.016Z,45.70
2019-05-05T10:20:11.873Z,46.50
2019-05-05T10:22:40.313Z,46.20
2019-05-05T10:25:10.740Z,45.90
2019-05-05T10:27:44.875Z,46.80
2019-05-05T10:30:10.667Z,45.00
2019-05-05T10:32:39.204Z,46.20
2019-05-05T10:35:08.344Z,47.40
2019-05-05T10:37:37.691Z,46.90
2019-05-05T10:40:07.876Z,47.50
2019-05-05T10:42:54.005Z,47.10
2019-05-05T10:45:25.007Z,45.60
2019-05-05T10:47:53.883Z,44.80
2019-05-05T10:50:24.460Z,45.30
2019-05-05T10:52:53.653Z,46.80
2019-05-05T10:55:23.861Z,46.50
2019-05-05T10:57:54.238Z,45.20
2019-05-05T11:00:44.396Z,46.50
2019-05-05T11:03:14.809Z,47.70
2019-05-05T11:05:45.196Z,47.70
2019-05-05T11:08:14.394Z,47.70
2019-05-05T11:10:45.021Z,47.60
2019-05-05T11:13:17.236Z,46.90
2019-05-05T11:15:45.679Z,46.00
2019-05-05T11:18:14.950Z,45.20
2019-05-05T11:20:45.262Z,43.60
2019-05-05T11:23:14.862Z,44.90
2019-05-05T11:25:44.365Z,46.90
2019-05-05T11:28:13.368Z,46.60
2019-05-05T11:30:46.208Z,45.70
2019-05-05T11:33:28.499Z,45.30
2019-05-05T11:36:04.472Z,45.20
2019-05-05T11:38:34.062Z,46.30
2019-05-05T11:41:04.939Z,45.50
2019-05-05T11:43:33.901Z,45.00
2019-05-05T11:46:05.517Z,45.10
2019-05-05T11:48:34.515Z,46.60
2019-05-05T11:51:04.545Z,47.10
2019-05-05T11:53:33.967Z,48.50
2019-05-05T11:56:04.775Z,48.70
2019-05-05T11:58:34.069Z,48.10
2019-05-05T12:01:03.726Z,47.60
2019-05-05T12:03:34.035Z,47.50
2019-05-05T12:06:04.033Z,48.20
2019-05-05T12:08:34.567Z,47.60
2019-05-05T12:11:04.694Z,47.50
2019-05-05T12:13:33.261Z,46.00
2019-05-05T12:16:04.612Z,45.50
2019-05-05T12:18:34.438Z,43.50
2019-05-05T12:21:05.005Z,42.70
2019-05-05T12:23:34.043Z,40.70
2019-05-05T12:26:13.768Z,40.70
2019-05-05T12:28:44.083Z,42.00
2019-05-05T12:31:26.752Z,43.00
2019-05-05T12:33:55.445Z,42.70
2019-05-05T12:36:24.031Z,40.50
2019-05-05T12:38:54.675Z,38.70
2019-05-05T12:41:23.821Z,38.40
2019-05-05T12:43:54.828Z,37.70
2019-05-05T12:46:37.064Z,36.30
2019-05-05T12:49:07.196Z,35.40
2019-05-05T12:51:35.620Z,36.50
2019-05-05T12:54:05.131Z,35.00
2019-05-05T12:56:34.123Z,35.70
2019-05-05T12:59:04.415Z,34.00
2019-05-05T13:01:34.776Z,33.60
2019-05-05T13:04:04.338Z,34.20
2019-05-05T13:06:34.570Z,34.00
2019-05-05T13:09:06.755Z,33.50
2019-05-05T13:11:36.287Z,33.80
2019-05-05T13:14:05.286Z,33.50
2019-05-05T13:16:33.989Z,34.70
2019-05-05T13:19:04.511Z,33.10
2019-05-05T13:21:40.971Z,33.00
2019-05-05T13:24:13.621Z,33.30
2019-05-05T13:26:49.632Z,32.50
2019-05-05T13:29:18.060Z,33.60
2019-05-05T13:31:46.789Z,34.80
2019-05-05T13:34:15.225Z,35.20
2019-05-05T13:36:44.245Z,35.90
2019-05-05T13:39:14.429Z,35.50
2019-05-05T13:41:44.892Z,36.90
2019-05-05T13:44:14.941Z,36.00
2019-05-05T13:46:44.291Z,36.40
2019-05-05T13:49:29.675Z,36.90
2019-05-05T13:52:00.060Z,38.00
2019-05-05T13:54:28.491Z,37.60
2019-05-05T13:56:57.963Z,37.30
2019-05-05T13:59:26.647Z,35.70
2019-05-05T14:01:56.239Z,36.90
2019-05-05T14:04:24.683Z,36.30
2019-05-05T14:06:54.402Z,35.60
2019-05-05T14:09:23.928Z,36.70
2019-05-05T14:11:53.649Z,38.90
2019-05-05T14:14:24.124Z,39.40
2019-05-05T14:16:53.779Z,40.90
2019-05-05T14:19:24.815Z,41.50
2019-05-05T14:21:54.408Z,43.00
2019-05-05T14:24:27.757Z,40.40
2019-05-05T14:26:56.191Z,39.00
2019-05-05T14:29:35.275Z,38.10
2019-05-05T14:32:03.971Z,40.70
2019-05-05T14:34:34.383Z,42.70
2019-05-05T14:37:24.701Z,43.40
2019-05-05T14:39:54.566Z,43.90
2019-05-05T14:42:23.900Z,44.40
2019-05-05T14:44:54.500Z,42.90
2019-05-05T14:47:24.478Z,41.80
2019-05-05T14:49:53.998Z,41.50
2019-05-05T14:52:24.798Z,42.10
2019-05-05T14:54:54.324Z,44.60
2019-05-05T14:57:24.833Z,45.40
2019-05-05T14:59:54.048Z,44.60
2019-05-05T15:02:24.401Z,44.50
2019-05-05T15:04:55.424Z,44.80
2019-05-05T15:07:26.471Z,45.90
2019-05-05T15:10:14.448Z,47.00
2019-05-05T15:12:44.863Z,48.20
2019-05-05T15:15:14.335Z,51.20
2019-05-05T15:17:43.215Z,52.90
2019-05-05T15:20:13.946Z,53.80
2019-05-05T15:22:45.751Z,53.20
2019-05-05T15:25:14.603Z,52.70
2019-05-05T15:27:45.019Z,51.40
2019-05-05T15:30:13.629Z,50.00
2019-05-05T15:32:43.824Z,47.90
2019-05-05T15:35:14.308Z,48.80
2019-05-05T15:37:43.642Z,48.60
2019-05-05T15:40:14.325Z,48.00
2019-05-05T15:42:43.981Z,49.10
2019-05-05T15:45:12.786Z,50.30
2019-05-05T15:47:43.616Z,51.30
2019-05-05T15:50:13.851Z,51.50
2019-05-05T15:52:44.014Z,52.40
2019-05-05T15:55:14.066Z,52.30
2019-05-05T15:57:44.270Z,54.10
2019-05-05T16:00:14.071Z,55.10
2019-05-05T16:02:44.218Z,56.80
2019-05-05T16:05:13.762Z,57.60
2019-05-05T16:07:44.042Z,59.00
2019-05-05T16:10:13.764Z,59.40
2019-05-05T16:12:45.001Z,60.90
2019-05-05T16:15:27.300Z,62.80
2019-05-05T16:18:13.714Z,64.50
2019-05-05T16:20:45.807Z,65.50
2019-05-05T16:23:16.183Z,66.50
2019-05-05T16:25:46.581Z,67.70
2019-05-05T16:28:14.839Z,68.20
2019-05-05T16:30:44.531Z,68.00
2019-05-05T16:33:14.061Z,68.70
2019-05-05T16:35:43.743Z,68.70
2019-05-05T16:38:14.674Z,68.20
2019-05-05T16:40:44.422Z,68.90
2019-05-05T16:43:16.259Z,69.50
2019-05-05T16:45:44.455Z,69.90
2019-05-05T16:48:13.107Z,70.50
2019-05-05T16:50:43.908Z,71.50
2019-05-05T16:53:30.969Z,72.00
2019-05-05T16:55:59.407Z,71.40
2019-05-05T16:58:27.884Z,69.00
2019-05-05T17:00:56.619Z,66.60
2019-05-05T17:03:25.373Z,66.30
2019-05-05T17:05:54.633Z,64.90
2019-05-05T17:08:24.510Z,65.40
2019-05-05T17:10:53.130Z,66.40
2019-05-05T17:13:24.155Z,66.50
2019-05-05T17:16:13.456Z,67.20
2019-05-05T17:19:04.309Z,68.20
2019-05-05T17:21:34.163Z,66.70
2019-05-05T17:24:03.033Z,67.90
2019-05-05T17:26:35.320Z,68.60
2019-05-05T17:29:03.745Z,69.40
2019-05-05T17:31:33.980Z,69.50
2019-05-05T17:34:04.197Z,70.00
2019-05-05T17:36:32.739Z,70.70
2019-05-05T17:39:02.080Z,70.80
2019-05-05T17:41:47.183Z,71.40
2019-05-05T17:44:20.263Z,71.60
2019-05-05T17:46:56.350Z,72.00
2019-05-05T17:49:44.680Z,72.70
2019-05-05T17:52:14.763Z,71.50
2019-05-05T17:54:46.818Z,71.80
2019-05-05T17:57:15.246Z,71.90
2019-05-05T17:59:44.080Z,71.50
2019-05-05T18:02:13.041Z,71.30
2019-05-05T18:04:44.284Z,71.40
2019-05-05T18:07:16.847Z,71.40
2019-05-05T18:10:04.131Z,71.40
2019-05-05T18:12:37.020Z,71.10
2019-05-05T18:15:07.332Z,70.10
2019-05-05T18:17:36.739Z,70.10
2019-05-05T18:20:06.615Z,70.50
2019-05-05T18:22:35.059Z,69.50
2019-05-05T18:25:04.968Z,69.90
2019-05-05T18:27:34.448Z,70.50
2019-05-05T18:30:04.050Z,69.20
2019-05-05T18:32:34.648Z,69.80
2019-05-05T18:35:06.419Z,70.70
2019-05-05T18:37:33.975Z,70.50
2019-05-05T18:40:04.117Z,69.00
2019-05-05T18:42:33.996Z,68.50
2019-05-05T18:45:05.324Z,67.80
2019-05-05T18:47:34.149Z,67.20
2019-05-05T18:50:04.114Z,67.00
2019-05-05T18:52:34.593Z,67.90
2019-05-05T18:55:04.380Z,67.70
2019-05-05T18:57:34.154Z,68.00
2019-05-05T19:00:03.889Z,69.10
2019-05-05T19:02:40.349Z,69.60
2019-05-05T19:05:14.472Z,70.30
2019-05-05T19:07:55.133Z,71.30
2019-05-05T19:10:17.699Z,72.00
2019-05-05T19:12:46.161Z,73.00
2019-05-05T19:15:14.799Z,73.70
2019-05-05T19:17:44.453Z,74.30
2019-05-05T19:20:17.635Z,75.00
2019-05-05T19:22:46.051Z,75.80
2019-05-05T19:25:17.384Z,76.60
2019-05-05T19:27:46.638Z,77.10
2019-05-05T19:30:17.243Z,77.70
2019-05-05T19:32:50.768Z,78.30
2019-05-05T19:35:19.180Z,80.10
2019-05-05T19:37:47.607Z,80.70
2019-05-05T19:40:17.375Z,82.40
2019-05-05T19:42:46.306Z,83.20
2019-05-05T19:45:15.705Z,83.60
2019-05-05T19:47:44.187Z,84.60
2019-05-05T19:50:29.968Z,85.10
2019-05-05T19:52:58.395Z,86.20
2019-05-05T19:55:26.823Z,87.60
2019-05-05T19:57:55.245Z,88.20
2019-05-05T20:00:26.317Z,89.20
2019-05-05T20:03:04.433Z,89.30
2019-05-05T20:05:26.304Z,90.20
2019-05-05T20:07:55.446Z,90.80
2019-05-05T20:10:24.020Z,91.50
2019-05-05T20:12:54.631Z,92.10
2019-05-05T20:15:25.617Z,92.50
2019-05-05T20:17:54.080Z,92.60
2019-05-05T20:20:22.559Z,92.70
2019-05-05T20:22:51.328Z,93.00
2019-05-05T20:25:20.952Z,93.50
2019-05-05T20:27:49.387Z,93.50
2019-05-05T20:30:18.339Z,93.80
2019-05-05T20:32:56.174Z,93.70
2019-05-05T20:35:29.907Z,93.70
2019-05-05T20:38:16.271Z,93.90
2019-05-05T20:40:52.148Z,94.10
2019-05-05T20:43:20.859Z,94.00
2019-05-05T20:45:49.307Z,93.90
2019-05-05T20:48:18.703Z,94.20
2019-05-05T20:50:47.364Z,94.20
2019-05-05T20:53:16.703Z,94.70
2019-05-05T20:55:45.435Z,95.00
2019-05-05T20:58:14.232Z,95.40
2019-05-05T21:00:44.258Z,95.70
2019-05-05T21:03:14.236Z,95.90
2019-05-05T21:05:44.043Z,95.90
2019-05-05T21:08:14.128Z,95.90
2019-05-05T21:10:44.241Z,96.10
2019-05-05T21:13:14.864Z,96.20
2019-05-05T21:15:45.187Z,96.10
2019-05-05T21:18:14.455Z,96.20
2019-05-05T21:20:43.292Z,96.10
2019-05-05T21:23:16.383Z,96.40
2019-05-05T21:26:04.570Z,96.30
2019-05-05T21:28:33.763Z,96.40
2019-05-05T21:31:04.650Z,96.30
2019-05-05T21:33:34.654Z,96.40
2019-05-05T21:36:04.394Z,96.60
2019-05-05T21:38:35.419Z,96.80
2019-05-05T21:41:04.641Z,97.00
2019-05-05T21:43:33.130Z,97.10
2019-05-05T21:46:04.289Z,97.20
2019-05-05T21:48:34.100Z,97.40
2019-05-05T21:51:04.781Z,97.30
2019-05-05T21:53:44.919Z,97.40
2019-05-05T21:56:31.603Z,97.50
2019-05-05T21:59:00.041Z,97.50
2019-05-05T22:01:29.269Z,97.90
2019-05-05T22:03:58.044Z,98.10
2019-05-05T22:06:26.475Z,98.30
2019-05-05T22:08:54.918Z,98.90
2019-05-05T22:11:24.281Z,98.80
2019-05-05T22:13:54.186Z,99.20
2019-05-05T22:16:23.687Z,99.40
2019-05-05T22:18:54.022Z,99.70
2019-05-05T22:21:24.349Z,99.80
2019-05-05T22:24:15.952Z,99.40
2019-05-05T22:26:44.937Z,99.50
2019-05-05T22:29:17.057Z,99.40
2019-05-05T22:31:44.483Z,99.50
2019-05-05T22:34:14.562Z,99.60
2019-05-05T22:36:44.903Z,99.60
2019-05-05T22:39:16.487Z,99.60
2019-05-05T22:41:44.678Z,99.70
2019-05-05T22:44:13.907Z,99.90
2019-05-05T22:46:43.031Z,99.90
2019-05-05T22:49:14.757Z,99.90
2019-05-05T22:51:44.765Z,99.90
2019-05-05T22:54:15.133Z,99.90
2019-05-05T22:56:44.838Z,99.90
2019-05-05T22:59:14.163Z,99.90
2019-05-05T23:01:42.597Z,99.90
2019-05-05T23:04:14.346Z,99.90
2019-05-05T23:06:47.019Z,99.90
2019-05-05T23:09:15.450Z,99.90
2019-05-05T23:11:44.160Z,99.90
2019-05-05T23:14:28.656Z,99.90
2019-05-05T23:17:17.093Z,99.90
2019-05-05T23:20:01.697Z,99.90
2019-05-05T23:22:37.859Z,99.90
2019-05-05T23:25:20.979Z,99.90
2019-05-05T23:27:54.559Z,99.90
2019-05-05T23:30:32.279Z,99.90
2019-05-05T23:32:54.806Z,99.90
2019-05-05T23:35:24.017Z,99.90
2019-05-05T23:37:52.662Z,99.90
2019-05-05T23:40:24.665Z,99.90
2019-05-05T23:42:54.194Z,99.90
2019-05-05T23:45:24.842Z,99.90
2019-05-05T23:47:54.500Z,99.90
2019-05-05T23:50:24.470Z,99.90
2019-05-05T23:52:54.510Z,99.90
2019-05-05T23:55:23.924Z,99.90
2019-05-05T23:57:54.638Z,99.90
